Time;durP1;ratioP1;P1;durP2;ratioP2;P2;SDS_P1;SDS_P2;PMS_P1;PMS_P2;Temp;Humidity;BMP_temperature;BMP_pressure;BME280_temperature;BME280_humidity;BME280_pressure;Samples;Min_cycle;Max_cycle;Signal;HPM_P1;HPM_P2
2021/09/13 00:00:44;;;;;;;41.47;25.92;;;10.70;99.90;;;;;;4953559;28;20055;-75
2021/09/13 00:03:13;;;;;;;37.00;23.25;;;10.70;99.90;;;;;;4969159;28;20045;-75
2021/09/13 00:05:41;;;;;;;29.13;21.20;;;10.70;99.90;;;;;;4988508;28;20046;-75
2021/09/13 00:08:07;;;;;;;31.23;21.08;;;10.60;99.90;;;;;;4990553;28;20046;-75
2021/09/13 00:10:34;;;;;;;29.38;20.15;;;10.50;99.90;;;;;;4987591;28;20054;-75
2021/09/13 00:13:01;;;;;;;27.10;19.20;;;10.60;99.90;;;;;;4987525;28;20108;-75
2021/09/13 00:15:29;;;;;;;25.95;18.80;;;10.50;99.90;;;;;;4971009;28;20061;-75
2021/09/13 00:17:59;;;;;;;38.13;21.35;;;10.40;99.90;;;;;;4986441;28;20049;-75
2021/09/13 00:20:27;;;;;;;32.47;20.60;;;10.40;99.90;;;;;;5002135;28;20655;-75
2021/09/13 00:22:55;;;;;;;32.25;20.35;;;10.40;99.90;;;;;;4983197;28;20128;-75
2021/09/13 00:25:22;;;;;;;30.65;22.05;;;10.40;99.90;;;;;;5002372;28;20363;-75
2021/09/13 00:27:49;;;;;;;32.05;22.40;;;10.30;99.90;;;;;;4986684;28;20062;-75
2021/09/13 00:30:17;;;;;;;33.72;23.02;;;10.20;99.90;;;;;;4985253;28;20145;-74
2021/09/13 00:32:44;;;;;;;34.53;22.55;;;10.30;99.90;;;;;;4985349;28;20058;-74
2021/09/13 00:35:12;;;;;;;36.90;23.17;;;10.30;99.90;;;;;;4985203;28;20108;-75
2021/09/13 00:37:40;;;;;;;35.03;23.27;;;10.40;99.90;;;;;;4968351;28;20562;-75
2021/09/13 00:40:09;;;;;;;36.22;24.17;;;10.50;99.90;;;;;;4987266;28;20493;-75
2021/09/13 00:42:36;;;;;;;31.67;22.95;;;10.30;99.90;;;;;;4986479;28;20065;-75
2021/09/13 00:45:04;;;;;;;33.90;21.05;;;10.20;99.90;;;;;;4987487;28;20137;-75
2021/09/13 00:47:31;;;;;;;36.10;22.98;;;10.10;99.90;;;;;;4985975;28;20503;-76
2021/09/13 00:49:57;;;;;;;30.55;21.80;;;10.10;99.90;;;;;;4984724;28;20066;-75
2021/09/13 00:52:24;;;;;;;29.10;20.88;;;10.00;99.90;;;;;;4967971;28;20061;-75
2021/09/13 00:54:51;;;;;;;35.33;22.00;;;10.00;99.90;;;;;;4985809;28;20149;-75
2021/09/13 00:57:18;;;;;;;39.00;22.35;;;10.00;99.90;;;;;;4984155;28;20046;-75
2021/09/13 00:59:45;;;;;;;33.30;21.48;;;10.00;99.90;;;;;;4952767;28;20054;-75
2021/09/13 01:02:12;;;;;;;37.50;23.70;;;10.00;99.90;;;;;;4968851;28;20050;-75
2021/09/13 01:04:39;;;;;;;42.95;23.73;;;10.10;99.90;;;;;;4973044;28;20105;-75
2021/09/13 01:07:06;;;;;;;38.60;24.13;;;10.10;99.90;;;;;;4984179;28;20074;-75
2021/09/13 01:09:33;;;;;;;36.15;23.67;;;10.00;99.90;;;;;;4985011;28;20120;-74
2021/09/13 01:12:01;;;;;;;30.45;21.08;;;10.10;99.90;;;;;;4969101;28;20430;-74
2021/09/13 01:14:36;;;;;;;36.60;23.48;;;10.10;99.90;;;;;;4985491;28;20080;-75
2021/09/13 01:17:05;;;;;;;37.92;24.90;;;10.10;99.90;;;;;;4967263;28;20042;-74
2021/09/13 01:19:35;;;;;;;46.22;27.23;;;10.10;99.90;;;;;;4967707;28;20062;-74
2021/09/13 01:22:03;;;;;;;39.80;25.35;;;10.10;99.90;;;;;;4986976;28;20046;-75
2021/09/13 01:24:39;;;;;;;48.90;28.60;;;10.10;99.90;;;;;;4970772;28;20054;-74
2021/09/13 01:27:08;;;;;;;60.20;30.77;;;10.10;99.90;;;;;;4965151;28;20173;-75
2021/09/13 01:29:36;;;;;;;42.83;26.73;;;10.20;99.90;;;;;;4966340;28;20085;-75
2021/09/13 01:32:05;;;;;;;42.47;24.42;;;10.20;99.90;;;;;;4962642;28;20065;-76
2021/09/13 01:34:45;;;;;;;33.70;21.42;;;10.10;99.90;;;;;;4970391;28;20078;-75
2021/09/13 01:37:13;;;;;;;29.70;20.23;;;9.90;99.90;;;;;;4983432;28;20064;-75
2021/09/13 01:39:40;;;;;;;28.95;19.13;;;9.80;99.90;;;;;;4984393;28;20181;-76
2021/09/13 01:42:07;;;;;;;37.97;24.42;;;9.70;99.90;;;;;;4983708;28;20050;-75
2021/09/13 01:44:34;;;;;;;32.88;22.45;;;9.70;99.90;;;;;;4987012;28;20592;-75
2021/09/13 01:47:02;;;;;;;33.65;21.88;;;9.70;99.90;;;;;;4971539;28;20073;-75
2021/09/13 01:49:28;;;;;;;43.20;24.40;;;9.70;99.90;;;;;;4986041;28;20053;-75
2021/09/13 01:51:57;;;;;;;39.10;24.42;;;9.60;99.90;;;;;;4983338;28;20047;-75
2021/09/13 01:54:24;;;;;;;39.67;25.27;;;9.80;99.90;;;;;;4984104;28;20449;-75
2021/09/13 01:56:52;;;;;;;40.60;24.75;;;9.80;99.90;;;;;;4966098;28;20229;-75
2021/09/13 01:59:29;;;;;;;42.58;24.35;;;9.70;99.90;;;;;;4983541;28;20056;-75
2021/09/13 02:01:55;;;;;;;45.08;26.05;;;9.70;99.90;;;;;;4983813;28;20046;-75
2021/09/13 02:04:23;;;;;;;48.90;25.65;;;9.70;99.90;;;;;;4967702;28;20031;-76
2021/09/13 02:06:49;;;;;;;49.20;28.30;;;9.70;99.90;;;;;;4967401;28;20062;-75
2021/09/13 02:09:16;;;;;;;58.78;32.30;;;9.70;99.90;;;;;;4985292;28;20093;-75
2021/09/13 02:11:43;;;;;;;55.05;30.42;;;9.60;99.90;;;;;;4966335;28;20559;-75
2021/09/13 02:14:10;;;;;;;54.85;30.05;;;9.70;99.90;;;;;;4995236;28;20118;-75
2021/09/13 02:16:37;;;;;;;53.55;30.50;;;9.70;99.90;;;;;;4982414;28;20050;-75
2021/09/13 02:19:07;;;;;;;57.97;32.72;;;9.70;99.90;;;;;;4967957;28;20149;-76
2021/09/13 02:21:34;;;;;;;53.60;30.60;;;9.90;99.90;;;;;;4983086;28;20054;-75
2021/09/13 02:24:01;;;;;;;50.08;29.98;;;9.90;99.90;;;;;;4984189;28;20054;-75
2021/09/13 02:26:28;;;;;;;52.53;29.25;;;10.00;99.90;;;;;;4982536;28;20054;-75
2021/09/13 02:28:55;;;;;;;62.88;33.15;;;10.10;99.90;;;;;;4999570;28;20101;-75
2021/09/13 02:31:22;;;;;;;57.33;32.97;;;10.20;99.90;;;;;;4966699;28;20046;-75
2021/09/13 02:33:49;;;;;;;68.22;35.45;;;10.30;99.90;;;;;;4967439;28;20133;-75
2021/09/13 02:36:16;;;;;;;62.95;33.72;;;10.40;99.90;;;;;;4966325;28;20046;-75
2021/09/13 02:38:43;;;;;;;65.90;33.80;;;10.40;99.90;;;;;;4984037;28;20058;-74
2021/09/13 02:41:10;;;;;;;61.13;33.40;;;10.50;99.90;;;;;;4983249;28;20426;-75
2021/09/13 02:43:37;;;;;;;49.03;30.27;;;10.50;99.90;;;;;;4967613;28;20062;-75
2021/09/13 02:46:04;;;;;;;54.60;29.23;;;10.60;99.90;;;;;;4967286;28;20089;-75
2021/09/13 02:48:32;;;;;;;52.28;30.42;;;10.80;99.90;;;;;;4966918;28;20129;-75
2021/09/13 02:51:01;;;;;;;55.10;32.63;;;10.80;99.90;;;;;;4983421;28;20082;-75
2021/09/13 02:53:29;;;;;;;72.35;37.35;;;10.80;99.90;;;;;;4999278;28;20193;-75
2021/09/13 02:55:56;;;;;;;72.43;39.78;;;11.00;99.90;;;;;;4963518;28;20048;-75
2021/09/13 02:58:23;;;;;;;71.80;39.60;;;11.00;99.90;;;;;;4984620;28;20058;-74
2021/09/13 03:00:51;;;;;;;70.00;39.88;;;10.90;99.90;;;;;;4967091;28;20046;-74
2021/09/13 03:03:18;;;;;;;43.25;27.63;;;10.80;99.90;;;;;;4983534;28;20053;-75
2021/09/13 03:05:45;;;;;;;41.25;26.45;;;10.80;99.90;;;;;;4967047;28;20050;-75
2021/09/13 03:08:16;;;;;;;37.97;25.45;;;10.80;99.90;;;;;;4967434;28;20046;-76
2021/09/13 03:10:44;;;;;;;39.95;24.92;;;10.80;99.90;;;;;;4966268;28;20211;-75
2021/09/13 03:13:12;;;;;;;35.75;24.75;;;11.10;99.90;;;;;;4985673;28;20060;-75
2021/09/13 03:15:39;;;;;;;33.40;22.50;;;11.20;99.90;;;;;;4969421;28;20130;-75
2021/09/13 03:18:06;;;;;;;38.95;24.27;;;11.20;99.90;;;;;;4969949;28;20085;-75
2021/09/13 03:20:33;;;;;;;37.85;24.48;;;11.30;99.90;;;;;;4986172;28;20310;-75
2021/09/13 03:23:00;;;;;;;35.83;22.80;;;11.30;99.90;;;;;;4963244;28;20098;-75
2021/09/13 03:25:27;;;;;;;39.97;24.75;;;11.20;99.90;;;;;;4940143;28;20046;-75
2021/09/13 03:27:55;;;;;;;48.60;30.48;;;11.30;99.90;;;;;;4995095;28;20108;-75
2021/09/13 03:30:26;;;;;;;57.92;32.80;;;11.30;99.90;;;;;;4969662;28;20043;-75
2021/09/13 03:32:52;;;;;;;56.88;32.92;;;11.40;99.90;;;;;;4985801;28;20050;-75
2021/09/13 03:35:19;;;;;;;62.08;35.53;;;11.40;99.90;;;;;;4986758;28;20065;-74
2021/09/13 03:37:46;;;;;;;62.72;35.38;;;11.40;99.90;;;;;;4986411;28;20058;-75
2021/09/13 03:40:14;;;;;;;49.40;31.55;;;11.60;99.90;;;;;;4986465;28;20192;-75
2021/09/13 03:42:41;;;;;;;58.88;34.70;;;11.60;99.90;;;;;;4987292;28;20050;-75
2021/09/13 03:45:10;;;;;;;48.17;30.65;;;11.60;99.90;;;;;;4950863;28;20043;-75
2021/09/13 03:47:58;;;;;;;51.90;31.95;;;11.50;99.90;;;;;;4967149;28;20050;-75
2021/09/13 03:50:24;;;;;;;51.78;30.63;;;11.50;99.90;;;;;;4966874;28;20054;-76
2021/09/13 03:52:52;;;;;;;48.17;29.13;;;11.50;99.90;;;;;;4951295;28;20059;-75
2021/09/13 03:55:19;;;;;;;47.53;29.92;;;11.60;99.90;;;;;;4981221;28;20193;-75
2021/09/13 03:57:46;;;;;;;45.55;29.73;;;11.60;99.90;;;;;;4985339;28;20101;-75
2021/09/13 04:00:13;;;;;;;44.63;27.60;;;11.80;99.90;;;;;;5002418;28;20058;-75
2021/09/13 04:02:44;;;;;;;49.05;32.30;;;11.80;99.90;;;;;;4983580;28;20046;-75
2021/09/13 04:05:23;;;;;;;53.78;32.50;;;11.90;99.90;;;;;;4986693;28;20046;-75
2021/09/13 04:08:42;;;;;;;47.63;30.40;;;11.90;99.90;;;;;;4986956;28;20050;-76
2021/09/13 04:11:25;;;;;;;46.03;30.63;;;11.80;99.90;;;;;;4969588;28;20060;-75
2021/09/13 04:14:08;;;;;;;49.83;29.05;;;11.90;99.90;;;;;;4970290;28;20046;-75
2021/09/13 04:16:39;;;;;;;45.00;28.50;;;11.90;99.90;;;;;;4984538;28;20596;-75
2021/09/13 04:19:29;;;;;;;45.25;29.45;;;11.90;99.90;;;;;;4968954;28;20109;-75
2021/09/13 04:22:18;;;;;;;53.70;32.20;;;12.00;99.90;;;;;;4983765;28;20085;-76
2021/09/13 04:25:18;;;;;;;71.57;37.85;;;12.00;99.90;;;;;;4970332;28;20058;-75
2021/09/13 04:28:06;;;;;;;79.55;41.03;;;12.20;99.90;;;;;;4970170;28;20046;-75
2021/09/13 04:30:40;;;;;;;91.35;45.60;;;12.40;99.90;;;;;;4951824;28;20050;-75
2021/09/13 04:33:40;;;;;;;113.30;53.10;;;12.40;99.90;;;;;;4952495;28;20053;-75
2021/09/13 04:36:37;;;;;;;118.38;53.00;;;12.50;99.90;;;;;;4983346;28;20569;-75
2021/09/13 04:39:34;;;;;;;164.40;62.53;;;12.60;99.90;;;;;;4973172;28;20057;-75
2021/09/13 04:42:19;;;;;;;147.15;62.15;;;12.60;99.90;;;;;;4971047;28;20141;-74
2021/09/13 04:45:24;;;;;;;137.50;59.23;;;12.60;99.90;;;;;;4943778;28;20134;-75
2021/09/13 04:48:10;;;;;;;;;;;12.70;99.90;;;;;;4928932;29;20051;-75
2021/09/13 04:50:49;;;;;;;142.98;58.83;;;12.70;99.90;;;;;;4957096;28;20601;-75
2021/09/13 04:53:32;;;;;;;126.78;52.03;;;12.70;99.90;;;;;;4985542;28;20163;-74
2021/09/13 04:55:59;;;;;;;180.60;62.17;;;12.80;99.90;;;;;;4967961;28;20061;-75
2021/09/13 04:58:26;;;;;;;162.95;63.45;;;12.80;99.90;;;;;;4986531;28;20078;-75
2021/09/13 05:00:53;;;;;;;199.52;65.88;;;12.80;99.90;;;;;;4973201;28;20741;-75
2021/09/13 05:03:20;;;;;;;178.27;64.50;;;12.80;99.90;;;;;;4968856;28;20149;-75
2021/09/13 05:05:47;;;;;;;386.17;82.45;;;13.00;99.90;;;;;;4983356;28;20055;-75
2021/09/13 05:08:14;;;;;;;241.93;71.57;;;13.10;99.90;;;;;;4968108;28;20054;-75
2021/09/13 05:10:41;;;;;;;243.40;72.20;;;13.10;99.90;;;;;;4984284;28;20070;-75
2021/09/13 05:13:08;;;;;;;268.05;73.15;;;13.00;99.90;;;;;;4984626;28;20054;-75
2021/09/13 05:15:35;;;;;;;188.07;63.63;;;13.00;99.90;;;;;;4968193;28;20038;-75
2021/09/13 05:18:02;;;;;;;295.23;71.68;;;12.90;99.90;;;;;;4982778;28;20119;-75
2021/09/13 05:20:29;;;;;;;229.15;66.15;;;12.90;99.90;;;;;;4983575;28;20069;-75
2021/09/13 05:22:56;;;;;;;191.45;61.17;;;13.00;99.90;;;;;;4960824;28;20558;-75
2021/09/13 05:25:23;;;;;;;226.40;62.28;;;13.00;99.90;;;;;;4969034;28;20046;-75
2021/09/13 05:27:50;;;;;;;213.77;61.28;;;13.00;99.90;;;;;;4975965;28;20502;-74
2021/09/13 05:30:17;;;;;;;168.60;55.78;;;12.90;99.90;;;;;;4976012;28;20042;-74
2021/09/13 05:32:45;;;;;;;174.45;57.08;;;12.90;99.90;;;;;;4997626;28;20062;-75
2021/09/13 05:35:13;;;;;;;217.20;62.78;;;12.90;99.90;;;;;;4984624;28;20078;-74
2021/09/13 05:37:40;;;;;;;167.82;57.05;;;12.80;99.90;;;;;;4983930;28;20054;-75
2021/09/13 05:40:08;;;;;;;184.73;56.15;;;12.80;99.90;;;;;;4984618;28;20240;-75
2021/09/13 05:42:35;;;;;;;148.93;52.33;;;12.80;99.90;;;;;;4984420;28;20058;-75
2021/09/13 05:45:06;;;;;;;187.50;54.47;;;12.90;99.90;;;;;;4966447;28;20042;-74
2021/09/13 05:47:36;;;;;;;179.07;55.40;;;12.90;99.90;;;;;;4960991;28;20050;-75
2021/09/13 05:50:05;;;;;;;142.57;52.60;;;12.80;99.90;;;;;;4981668;28;20043;-75
2021/09/13 05:52:32;;;;;;;110.88;45.85;;;12.90;99.90;;;;;;4951360;28;20043;-75
2021/09/13 05:54:58;;;;;;;120.07;47.33;;;13.00;99.90;;;;;;4966769;28;20143;-74
2021/09/13 05:57:26;;;;;;;109.45;45.90;;;13.00;99.90;;;;;;4964783;28;20042;-75
2021/09/13 05:59:53;;;;;;;105.50;42.05;;;13.10;99.90;;;;;;4959428;28;20061;-75
2021/09/13 06:02:22;;;;;;;124.93;47.28;;;13.10;99.90;;;;;;4966005;28;20061;-75
2021/09/13 06:04:58;;;;;;;160.60;50.08;;;13.00;99.90;;;;;;4997192;28;20731;-74
2021/09/13 06:07:26;;;;;;;132.30;46.50;;;13.00;99.90;;;;;;4983383;28;20057;-75
2021/09/13 06:09:53;;;;;;;110.80;42.63;;;13.10;99.90;;;;;;4965878;28;20045;-75
2021/09/13 06:12:20;;;;;;;121.55;42.78;;;13.10;99.90;;;;;;4984031;28;20219;-75
2021/09/13 06:14:55;;;;;;;127.00;45.30;;;13.10;99.90;;;;;;4982013;28;20043;-76
2021/09/13 06:17:25;;;;;;;117.22;46.47;;;13.10;99.90;;;;;;4981089;28;20062;-75
2021/09/13 06:19:52;;;;;;;108.53;42.97;;;13.20;99.90;;;;;;4982864;28;20069;-74
2021/09/13 06:22:19;;;;;;;97.80;38.42;;;13.20;99.90;;;;;;4962395;28;20046;-75
2021/09/13 06:24:47;;;;;;;86.72;39.58;;;13.30;99.90;;;;;;4979788;28;20054;-75
2021/09/13 06:27:14;;;;;;;94.15;41.53;;;13.30;99.90;;;;;;4965608;28;20045;-75
2021/09/13 06:29:41;;;;;;;93.47;40.53;;;13.30;99.90;;;;;;4987043;28;20532;-75
2021/09/13 06:32:09;;;;;;;128.32;44.88;;;13.30;99.90;;;;;;4974098;28;20085;-75
2021/09/13 06:34:37;;;;;;;170.98;47.65;;;13.30;99.90;;;;;;4982128;28;20258;-76
2021/09/13 06:37:04;;;;;;;110.00;42.70;;;13.30;99.90;;;;;;4985793;28;20697;-75
2021/09/13 06:39:31;;;;;;;111.53;43.00;;;13.30;99.90;;;;;;5005100;28;20230;-75
2021/09/13 06:41:58;;;;;;;90.50;36.38;;;13.20;99.90;;;;;;4967816;28;20050;-75
2021/09/13 06:44:35;;;;;;;93.78;37.28;;;13.20;99.90;;;;;;4967672;28;20137;-75
2021/09/13 06:49:30;;;;;;;84.47;35.80;;;13.30;99.90;;;;;;4994711;28;20116;-75
2021/09/13 06:51:58;;;;;;;86.43;35.33;;;13.30;99.90;;;;;;4992641;28;20354;-74
2021/09/13 06:54:26;;;;;;;82.55;33.55;;;13.30;99.90;;;;;;4993257;28;20058;-74
2021/09/13 06:56:55;;;;;;;58.50;30.40;;;13.40;99.90;;;;;;4995735;28;20061;-74
2021/09/13 06:59:22;;;;;;;60.50;31.08;;;13.40;99.90;;;;;;4977947;28;20062;-76
2021/09/13 07:01:49;;;;;;;63.35;32.58;;;13.40;99.90;;;;;;5005356;28;20081;-73
2021/09/13 07:04:16;;;;;;;73.18;34.53;;;13.40;99.90;;;;;;4997039;28;20153;-74
2021/09/13 07:06:42;;;;;;;66.90;32.50;;;13.40;99.90;;;;;;4991187;28;20046;-74
2021/09/13 07:09:09;;;;;;;58.42;31.00;;;13.50;99.90;;;;;;4974565;28;20050;-74
2021/09/13 07:11:37;;;;;;;57.90;32.72;;;13.70;99.90;;;;;;4990066;28;20136;-75
2021/09/13 07:14:05;;;;;;;52.72;28.95;;;13.90;99.90;;;;;;4971167;28;20050;-75
2021/09/13 07:16:33;;;;;;;52.38;26.70;;;13.90;99.90;;;;;;4986553;28;20054;-77
2021/09/13 07:19:01;;;;;;;50.13;28.48;;;14.00;99.90;;;;;;4986737;28;20406;-76
2021/09/13 07:21:28;;;;;;;46.22;25.98;;;14.00;99.90;;;;;;4981685;28;20291;-75
2021/09/13 07:23:55;;;;;;;50.60;28.15;;;14.10;99.90;;;;;;4981903;28;20050;-75
2021/09/13 07:26:22;;;;;;;45.35;25.60;;;14.10;99.90;;;;;;4977309;28;20482;-77
2021/09/13 07:28:49;;;;;;;45.50;24.33;;;14.10;99.90;;;;;;4976761;28;20498;-71
2021/09/13 07:31:16;;;;;;;45.20;25.45;;;14.20;99.90;;;;;;4985543;28;20058;-71
2021/09/13 07:33:43;;;;;;;44.03;25.77;;;14.30;99.90;;;;;;4967014;28;20129;-70
2021/09/13 07:36:10;;;;;;;38.15;24.27;;;14.50;99.90;;;;;;4997401;28;20081;-71
2021/09/13 07:38:36;;;;;;;38.00;24.70;;;14.50;99.90;;;;;;4969602;28;20081;-71
2021/09/13 07:41:03;;;;;;;45.08;24.38;;;14.70;99.90;;;;;;4984945;28;20042;-72
2021/09/13 07:43:30;;;;;;;41.17;22.40;;;14.60;99.90;;;;;;4966944;28;20058;-72
2021/09/13 07:45:57;;;;;;;33.67;19.65;;;14.60;99.90;;;;;;4986690;28;20510;-73
2021/09/13 07:48:24;;;;;;;29.70;19.08;;;14.60;99.90;;;;;;4986018;28;20129;-70
2021/09/13 07:50:51;;;;;;;36.17;20.63;;;14.50;99.90;;;;;;4984339;28;20050;-73
2021/09/13 07:53:17;;;;;;;33.80;20.38;;;14.60;99.90;;;;;;4969643;28;20050;-73
2021/09/13 07:55:44;;;;;;;28.42;18.65;;;14.70;99.90;;;;;;4994734;28;20051;-72
2021/09/13 07:58:11;;;;;;;30.40;19.20;;;14.80;99.90;;;;;;4983793;28;20380;-70
2021/09/13 08:00:40;;;;;;;29.80;17.95;;;14.90;99.90;;;;;;4983718;28;20046;-73
2021/09/13 08:03:07;;;;;;;29.70;17.45;;;15.00;99.90;;;;;;4966045;28;20081;-72
2021/09/13 08:05:34;;;;;;;27.67;16.20;;;15.10;99.90;;;;;;4971325;28;20129;-72
2021/09/13 08:08:01;;;;;;;26.98;18.15;;;15.10;99.90;;;;;;4985119;28;20058;-72
2021/09/13 08:10:28;;;;;;;31.75;18.67;;;15.30;99.90;;;;;;4983535;28;20058;-73
2021/09/13 08:12:55;;;;;;;36.15;20.95;;;15.60;99.90;;;;;;4986052;28;20122;-72
2021/09/13 08:15:23;;;;;;;25.40;16.92;;;15.70;99.90;;;;;;4991262;28;20397;-73
2021/09/13 08:17:52;;;;;;;28.95;18.63;;;15.70;99.90;;;;;;4985432;28;20494;-73
2021/09/13 08:20:19;;;;;;;26.77;17.35;;;15.70;99.90;;;;;;4969292;28;20121;-73
2021/09/13 08:22:47;;;;;;;27.35;17.20;;;15.60;99.90;;;;;;4982531;28;20055;-71
2021/09/13 08:25:15;;;;;;;23.45;16.38;;;15.70;99.90;;;;;;4970393;28;20344;-72
2021/09/13 08:27:57;;;;;;;21.00;15.07;;;15.80;99.90;;;;;;4980175;28;20062;-73
2021/09/13 08:30:26;;;;;;;23.10;17.83;;;16.00;99.90;;;;;;4967317;28;20153;-73
2021/09/13 08:32:53;;;;;;;21.35;16.40;;;16.40;99.90;;;;;;4984711;28;20078;-73
2021/09/13 08:35:20;;;;;;;18.90;15.65;;;16.60;99.90;;;;;;4967544;28;20069;-73
2021/09/13 08:37:47;;;;;;;18.70;16.63;;;16.90;99.90;;;;;;4985764;28;20093;-73
2021/09/13 08:40:14;;;;;;;26.75;16.75;;;17.10;99.90;;;;;;4967975;28;20355;-73
2021/09/13 08:42:47;;;;;;;19.83;15.82;;;17.30;99.90;;;;;;4968211;28;20415;-73
2021/09/13 08:45:19;;;;;;;19.15;15.02;;;17.40;99.90;;;;;;4985965;28;20078;-72
2021/09/13 08:47:59;;;;;;;20.33;15.85;;;17.40;99.90;;;;;;4985232;28;20583;-72
2021/09/13 08:53:14;;;;;;;20.27;16.90;;;17.40;99.90;;;;;;4986685;28;20658;-72
2021/09/13 08:55:40;;;;;;;20.63;16.75;;;17.60;99.90;;;;;;4986241;28;20362;-72
2021/09/13 08:58:08;;;;;;;21.42;18.23;;;17.70;99.90;;;;;;4984440;28;20054;-72
2021/09/13 09:00:40;;;;;;;21.38;17.10;;;17.70;99.90;;;;;;4985802;28;20054;-72
2021/09/13 09:03:09;;;;;;;22.52;18.90;;;17.50;99.90;;;;;;4985790;28;20278;-72
2021/09/13 09:05:44;;;;;;;19.27;17.25;;;17.40;99.90;;;;;;4983757;28;20042;-72
2021/09/13 09:08:25;;;;;;;20.30;18.10;;;17.50;99.90;;;;;;4985784;28;20169;-71
2021/09/13 09:10:57;;;;;;;20.65;18.45;;;17.80;99.90;;;;;;5001621;28;20370;-71
2021/09/13 09:13:26;;;;;;;23.15;20.77;;;18.10;99.90;;;;;;4984521;28;20065;-71
2021/09/13 09:16:01;;;;;;;21.25;19.20;;;18.20;99.90;;;;;;4984066;28;20054;-72
2021/09/13 09:18:46;;;;;;;20.80;18.80;;;18.20;99.90;;;;;;4992344;28;20046;-72
2021/09/13 09:21:29;;;;;;;21.67;19.55;;;18.20;99.90;;;;;;4981636;28;20141;-72
2021/09/13 09:23:58;;;;;;;24.60;20.65;;;18.20;99.90;;;;;;4969005;28;20539;-74
2021/09/13 09:26:26;;;;;;;18.88;17.08;;;18.40;99.90;;;;;;4975980;28;20313;-71
2021/09/13 09:28:55;;;;;;;18.60;17.00;;;18.60;99.90;;;;;;4985488;28;20457;-71
2021/09/13 09:31:41;;;;;;;20.55;18.70;;;18.70;99.90;;;;;;4983208;28;20046;-71
2021/09/13 09:34:18;;;;;;;21.00;19.00;;;18.80;99.90;;;;;;4983691;28;20426;-74
2021/09/13 09:36:57;;;;;;;23.50;21.25;;;19.30;99.90;;;;;;4998596;28;20080;-73
2021/09/13 09:39:32;;;;;;;22.65;20.38;;;19.40;99.90;;;;;;4984144;28;20574;-73
2021/09/13 09:41:59;;;;;;;20.05;18.23;;;19.60;99.90;;;;;;4985050;28;20062;-73
2021/09/13 09:44:27;;;;;;;18.50;16.98;;;19.80;99.90;;;;;;5000757;28;20050;-73
2021/09/13 09:47:04;;;;;;;18.63;17.05;;;20.00;99.90;;;;;;4985094;28;20081;-73
2021/09/13 09:49:52;;;;;;;18.75;16.95;;;19.80;99.90;;;;;;4982805;28;20120;-73
2021/09/13 09:52:40;;;;;;;19.35;17.58;;;19.80;99.90;;;;;;4983983;28;20104;-73
2021/09/13 09:55:20;;;;;;;20.17;18.58;;;20.00;99.90;;;;;;4985268;28;20068;-72
2021/09/13 09:58:13;;;;;;;20.70;18.83;;;20.40;99.90;;;;;;4981110;28;20683;-73
2021/09/13 10:00:43;;;;;;;22.92;20.90;;;20.50;99.90;;;;;;4967610;28;20522;-73
2021/09/13 10:03:10;;;;;;;23.30;21.13;;;20.30;99.90;;;;;;4968641;28;20508;-73
2021/09/13 10:05:37;;;;;;;21.02;19.02;;;19.80;99.90;;;;;;4982401;28;20076;-73
2021/09/13 10:08:05;;;;;;;19.73;17.90;;;19.40;99.90;;;;;;4983424;28;20121;-72
2021/09/13 10:10:32;;;;;;;20.27;18.27;;;19.40;99.90;;;;;;4983556;28;20551;-73
2021/09/13 10:13:01;;;;;;;19.27;17.70;;;19.90;99.90;;;;;;4984258;28;20112;-73
2021/09/13 10:15:28;;;;;;;21.15;18.98;;;20.40;99.90;;;;;;4983814;28;20577;-73
2021/09/13 10:17:59;;;;;;;21.13;19.17;;;20.60;99.90;;;;;;4985178;28;20054;-73
2021/09/13 10:20:26;;;;;;;21.42;19.20;;;20.50;99.90;;;;;;4982465;28;20050;-74
2021/09/13 10:22:54;;;;;;;22.75;20.52;;;20.10;99.90;;;;;;4960204;28;20113;-73
2021/09/13 10:25:21;;;;;;;21.92;19.73;;;19.60;99.90;;;;;;4967784;28;20129;-73
2021/09/13 10:27:49;;;;;;;21.35;19.25;;;19.10;99.90;;;;;;4991755;28;20046;-73
2021/09/13 10:30:22;;;;;;;21.00;18.65;;;19.10;99.90;;;;;;4967836;28;20438;-74
2021/09/13 10:32:51;;;;;;;21.58;17.98;;;19.30;99.90;;;;;;4966208;28;20345;-74
2021/09/13 10:35:39;;;;;;;19.48;17.48;;;19.10;99.90;;;;;;4981923;28;20050;-72
2021/09/13 10:38:06;;;;;;;17.35;15.75;;;19.10;99.90;;;;;;4983100;28;20054;-72
2021/09/13 10:40:39;;;;;;;16.20;14.60;;;18.90;99.90;;;;;;4984002;28;20047;-72
2021/09/13 10:43:20;;;;;;;14.38;13.15;;;18.80;99.90;;;;;;4983660;28;20062;-74
2021/09/13 10:45:46;;;;;;;14.68;13.13;;;18.70;99.90;;;;;;4980346;28;20359;-72
2021/09/13 10:48:21;;;;;;;13.32;12.23;;;18.70;99.90;;;;;;4983943;28;20060;-72
2021/09/13 10:50:50;;;;;;;15.15;13.65;;;18.60;99.90;;;;;;4999003;28;20114;-72
2021/09/13 10:53:17;;;;;;;14.88;13.50;;;18.60;99.90;;;;;;4984165;28;20163;-72
2021/09/13 10:55:50;;;;;;;16.08;14.80;;;18.70;99.90;;;;;;4983365;28;20104;-72
2021/09/13 10:58:44;;;;;;;15.77;14.60;;;18.60;99.90;;;;;;4983612;28;20549;-72
2021/09/13 11:01:25;;;;;;;15.40;14.20;;;18.70;99.90;;;;;;4998601;28;20058;-72
2021/09/13 11:03:57;;;;;;;16.08;14.50;;;19.20;99.90;;;;;;4998629;28;20153;-72
2021/09/13 11:06:26;;;;;;;16.35;15.15;;;19.60;99.90;;;;;;4998665;28;20054;-72
2021/09/13 11:08:59;;;;;;;15.70;14.43;;;19.60;99.90;;;;;;4976723;28;20417;-72
2021/09/13 11:11:31;;;;;;;17.67;16.38;;;19.80;99.90;;;;;;4965744;28;20470;-72
2021/09/13 11:14:07;;;;;;;18.20;16.77;;;20.30;99.90;;;;;;4983088;28;20077;-72
2021/09/13 11:16:43;;;;;;;16.65;15.55;;;20.30;99.90;;;;;;4998309;28;20167;-72
2021/09/13 11:19:12;;;;;;;17.38;15.98;;;20.30;99.90;;;;;;4981537;28;20058;-72
2021/09/13 11:21:42;;;;;;;16.88;15.57;;;20.10;99.90;;;;;;4983265;28;20046;-72
2021/09/13 11:24:18;;;;;;;15.35;14.18;;;20.10;99.90;;;;;;4980315;28;20498;-72
2021/09/13 11:26:54;;;;;;;15.13;13.93;;;20.10;99.90;;;;;;4978289;28;20109;-72
2021/09/13 11:29:27;;;;;;;13.82;12.93;;;19.80;99.90;;;;;;4978987;28;20042;-71
2021/09/13 11:32:03;;;;;;;13.15;12.27;;;20.00;99.90;;;;;;4968831;28;20594;-71
2021/09/13 11:34:36;;;;;;;14.52;13.45;;;19.60;99.90;;;;;;4989886;28;20133;-72
2021/09/13 11:37:09;;;;;;;14.13;13.10;;;19.80;99.90;;;;;;5001293;28;20043;-72
2021/09/13 11:39:47;;;;;;;13.68;12.73;;;20.20;99.90;;;;;;5001458;28;20058;-72
2021/09/13 11:42:16;;;;;;;;;;;20.40;99.90;;;;;;4986842;28;20055;-72
2021/09/13 11:44:52;;;;;;;14.73;13.73;;;20.50;99.90;;;;;;4987027;28;19971;-72
2021/09/13 11:47:22;;;;;;;14.63;13.60;;;20.40;99.90;;;;;;4984632;28;20054;-72
2021/09/13 11:49:53;;;;;;;15.18;13.95;;;20.50;99.90;;;;;;4976171;28;20064;-72
2021/09/13 11:52:30;;;;;;;15.15;14.07;;;20.50;99.90;;;;;;4970060;28;20046;-72
2021/09/13 11:55:04;;;;;;;15.93;14.95;;;20.60;99.90;;;;;;4987027;28;20089;-72
2021/09/13 11:57:43;;;;;;;15.20;14.10;;;20.80;99.90;;;;;;4967969;28;20683;-72
2021/09/13 12:00:24;;;;;;;15.77;14.85;;;20.60;99.90;;;;;;4964903;28;20035;-72
2021/09/13 12:02:55;;;;;;;15.82;14.27;;;20.60;99.90;;;;;;4986461;28;20093;-73
2021/09/13 12:05:28;;;;;;;15.30;14.20;;;20.40;99.90;;;;;;4986267;28;20170;-73
2021/09/13 12:07:57;;;;;;;14.85;13.85;;;20.60;99.90;;;;;;4967835;28;20050;-72
2021/09/13 12:10:28;;;;;;;15.95;14.85;;;20.60;99.90;;;;;;4967148;28;20050;-72
2021/09/13 12:12:59;;;;;;;15.43;14.50;;;20.80;99.90;;;;;;4986290;28;20070;-74
2021/09/13 12:15:30;;;;;;;15.40;14.18;;;20.20;99.90;;;;;;4985901;28;20054;-72
2021/09/13 12:17:57;;;;;;;15.38;14.38;;;19.50;99.90;;;;;;4984953;28;20046;-74
2021/09/13 12:20:38;;;;;;;14.60;13.48;;;19.00;99.90;;;;;;4985173;28;20538;-71
2021/09/13 12:23:08;;;;;;;15.80;14.70;;;18.90;99.90;;;;;;4975783;28;20058;-72
2021/09/13 12:25:47;;;;;;;15.70;14.50;;;19.30;99.90;;;;;;4972500;28;20613;-72
2021/09/13 12:28:25;;;;;;;14.60;13.73;;;19.70;99.90;;;;;;4982231;28;20085;-72
2021/09/13 12:30:54;;;;;;;14.38;13.57;;;20.30;99.90;;;;;;4999594;28;20144;-72
2021/09/13 12:33:47;;;;;;;16.15;15.18;;;20.70;99.90;;;;;;4984636;28;20058;-72
2021/09/13 12:36:18;;;;;;;16.45;15.07;;;20.70;99.90;;;;;;4983826;28;20362;-72
2021/09/13 12:38:48;;;;;;;15.95;14.95;;;20.90;99.90;;;;;;4985671;28;20054;-72
2021/09/13 12:41:29;;;;;;;16.10;15.15;;;20.90;99.90;;;;;;4983944;28;20057;-72
2021/09/13 12:43:55;;;;;;;15.75;14.73;;;21.00;99.90;;;;;;4968455;28;20054;-72
2021/09/13 12:46:27;;;;;;;15.18;14.10;;;20.80;99.90;;;;;;4982969;28;20042;-73
2021/09/13 12:49:00;;;;;;;15.07;14.20;;;20.80;99.90;;;;;;4984690;28;20250;-73